HELX  Luxor International Airport

Add Bookmark

Luxor, Egypt

Status IATA
Operational LXR
Latitude Longitude
25° 40' 15" N 32° 42' 23" E
25.671000 32.706600
Local (DST + 2) UTC (GMT + 2)
Sep 1, 2014 04:38 Sep 1, 2014 13:38
Sunrise-Sunset Local UTC
Begin Civil Twilight 06:05 03:05
Sunrise 06:28 03:28
Sunset 07:09 16:09
End Civil Twilight 07:33 16:33

Current Weather

METAR Observed VFR
HELX 011300Z 32007KT CAVOK 40/13 Q1005 NOSIG Mon, Sep 1, 2014 @ 13:00 UTC
(38 Minutes ago)
Visual Flight Rules
Wind Visibility Clouds Conditions
320° at 7 knots (13 kph) 10 km or more
  • Clear skies
  • No significant weather
Temperatures Readings Precipitation
Current Temp 40°C (104°F)
Dewpoint 13°C (55°F)
Humidity 20%
Altimeter 29.68"Hg
Sea Level Pressure 1005mb
Field Elevation 288.71'
None Recorded

Forecast Weather

TAF
TAF HELX 011100Z 0112/0218 32008KT CAVOK
From To
Mon, Sep 1, 2014 @ 12:00 UTC Tue, Sep 2, 2014 @ 18:00 UTC
Wind Visibility Conditions
320° at 8 knots (15 kph) 10 km or more
  • No significant weather

24 Hour Weather History

Loading
-

24 Hour Weather Graphs

Loading
-

CheckWX.com is intended as a tool to help pilots better visualize weather data. It is not intended as a substitute for an official weather briefing obtained from a Flight Service Station. CheckWX.com does not meet the FAA requirements for an official pre-flight weather briefing. Therefore, it's important that pilots still call and obtain an official FSS pre-flight weather briefing.